Time;durP1;ratioP1;P1;durP2;ratioP2;P2;SDS_P1;SDS_P2;PMS_P1;PMS_P2;Temp;Humidity;BMP_temperature;BMP_pressure;BME280_temperature;BME280_humidity;BME280_pressure;Samples;Min_cycle;Max_cycle;Signal;HPM_P1;HPM_P2
2022/01/02 00:01:21;;;;;;;2.83;1.42;;;;;;;3.74;66.06;101856.69;4972914;28;20109;-73
2022/01/02 00:03:53;;;;;;;3.92;2.05;;;;;;;3.73;66.80;101850.69;4956397;28;20118;-75
2022/01/02 00:06:25;;;;;;;5.70;2.03;;;;;;;3.70;65.94;101847.88;4954131;28;20047;-74
2022/01/02 00:09:02;;;;;;;2.67;1.83;;;;;;;3.65;66.07;101846.66;4954062;28;20079;-78
2022/01/02 00:11:31;;;;;;;3.25;1.70;;;;;;;3.61;66.39;101842.06;4956322;28;20055;-75
2022/01/02 00:14:07;;;;;;;3.60;2.40;;;;;;;3.56;67.40;101835.72;4954394;28;20075;-74
2022/01/02 00:16:39;;;;;;;3.78;2.13;;;;;;;3.46;69.18;101836.72;4953772;28;20047;-75
2022/01/02 00:19:19;;;;;;;4.07;2.23;;;;;;;3.43;69.19;101840.69;4940327;29;20058;-75
2022/01/02 00:21:49;;;;;;;5.10;2.38;;;;;;;3.40;67.57;101836.25;4953357;28;20288;-74
2022/01/02 00:24:20;;;;;;;5.28;1.95;;;;;;;3.32;67.97;101838.22;4948786;29;20048;-75
2022/01/02 00:26:51;;;;;;;3.33;2.20;;;;;;;3.17;68.24;101825.94;4944157;29;20517;-75
2022/01/02 00:29:23;;;;;;;2.78;1.48;;;;;;;3.01;69.98;101824.75;4950011;28;20043;-77
2022/01/02 00:31:54;;;;;;;5.00;2.35;;;;;;;2.95;70.15;101824.28;4943414;29;20576;-75
2022/01/02 00:34:23;;;;;;;5.65;2.17;;;;;;;2.87;69.72;101808.34;4952936;28;20051;-77
2022/01/02 00:36:52;;;;;;;5.38;2.40;;;;;;;2.87;69.72;101815.13;4944738;28;20067;-75
2022/01/02 00:39:20;;;;;;;4.53;2.00;;;;;;;2.82;69.79;101808.75;4934861;29;20062;-73
2022/01/02 00:41:54;;;;;;;4.47;2.17;;;;;;;2.83;70.21;101813.09;4952869;28;20051;-73
2022/01/02 00:44:31;;;;;;;3.50;2.00;;;;;;;2.82;69.84;101808.75;4939247;28;20586;-75
2022/01/02 00:47:08;;;;;;;4.47;1.90;;;;;;;2.77;70.12;101808.41;4933819;29;20056;-75
2022/01/02 00:49:41;;;;;;;4.70;1.80;;;;;;;2.76;70.64;101803.19;4934461;29;20059;-74
2022/01/02 00:52:17;;;;;;;4.30;2.28;;;;;;;2.73;69.59;101799.63;4946583;28;20059;-75
2022/01/02 00:54:47;;;;;;;7.72;3.08;;;;;;;2.69;69.97;101797.59;4951272;28;20062;-77
2022/01/02 00:57:18;;;;;;;8.23;3.50;;;;;;;2.64;69.88;101810.78;4958807;28;20055;-79
2022/01/02 00:59:57;;;;;;;6.53;2.63;;;;;;;2.59;70.12;101806.97;4973543;28;20050;-78
2022/01/02 01:02:32;;;;;;;5.97;2.03;;;;;;;2.56;70.19;101802.50;4966558;28;20437;-77
2022/01/02 01:05:04;;;;;;;4.35;2.22;;;;;;;2.50;70.20;101796.94;4941896;28;20648;-76
2022/01/02 01:07:34;;;;;;;2.78;1.80;;;;;;;2.47;71.64;101796.69;4947283;29;20502;-78
2022/01/02 01:10:04;;;;;;;5.97;2.60;;;;;;;2.43;71.29;101799.78;4949335;28;20118;-78
2022/01/02 01:12:32;;;;;;;6.63;2.92;;;;;;;2.41;72.12;101806.44;4953700;28;20043;-78
2022/01/02 01:15:01;;;;;;;7.20;3.80;;;;;;;2.36;73.24;101794.94;4960028;28;20094;-78
2022/01/02 01:17:32;;;;;;;7.40;3.58;;;;;;;2.30;73.19;101790.25;4941312;29;20053;-78
2022/01/02 01:20:00;;;;;;;16.33;5.25;;;;;;;2.28;73.44;101797.78;4946588;28;20066;-78
2022/01/02 01:22:29;;;;;;;6.88;3.67;;;;;;;2.26;73.91;101801.88;4951451;29;20512;-79
2022/01/02 01:24:58;;;;;;;11.82;4.85;;;;;;;2.19;75.20;101799.59;4945375;28;20047;-78
2022/01/02 01:27:27;;;;;;;7.13;5.13;;;;;;;2.19;75.22;101793.63;4953031;29;20057;-78
2022/01/02 01:29:55;;;;;;;13.10;5.05;;;;;;;2.17;76.11;101796.03;4935944;29;20114;-77
2022/01/02 01:32:24;;;;;;;15.63;5.63;;;;;;;2.14;75.93;101795.81;4936432;29;20063;-79
2022/01/02 01:34:54;;;;;;;13.93;6.13;;;;;;;2.09;76.27;101782.66;4947862;29;20123;-81
2022/01/02 01:37:22;;;;;;;14.00;6.72;;;;;;;2.08;76.29;101785.09;4945780;29;20079;-77
2022/01/02 01:39:51;;;;;;;18.83;6.28;;;;;;;2.04;75.92;101783.97;4953289;28;20047;-77
2022/01/02 01:42:29;;;;;;;26.20;8.93;;;;;;;2.01;75.96;101778.59;4943227;28;20137;-78
2022/01/02 01:45:28;;;;;;;28.73;10.18;;;;;;;1.99;76.63;101771.59;4934101;29;20052;-78
2022/01/02 01:47:55;;;;;;;27.33;10.35;;;;;;;1.95;76.79;101761.91;4933929;29;20062;-77
2022/01/02 01:50:31;;;;;;;25.95;11.27;;;;;;;1.91;77.24;101758.22;4952823;29;20105;-78
2022/01/02 01:53:00;;;;;;;26.48;10.27;;;;;;;1.91;77.13;101767.56;4952618;28;20110;-79
2022/01/02 01:55:28;;;;;;;27.92;10.75;;;;;;;1.87;76.58;101772.38;4955052;28;20578;-79
2022/01/02 01:57:57;;;;;;;30.27;11.00;;;;;;;1.82;77.60;101771.13;4954345;28;20055;-78
2022/01/02 02:00:25;;;;;;;30.80;9.55;;;;;;;1.75;77.92;101768.84;4950591;28;20059;-78
2022/01/02 02:02:56;;;;;;;25.10;9.45;;;;;;;1.78;80.19;101775.88;4941865;29;20047;-78
2022/01/02 02:05:26;;;;;;;25.90;10.27;;;;;;;1.77;80.64;101774.97;4937937;29;20079;-80
2022/01/02 02:07:55;;;;;;;25.42;8.98;;;;;;;1.77;81.36;101777.53;4941250;29;20070;-78
2022/01/02 02:10:27;;;;;;;29.02;9.30;;;;;;;1.76;80.63;101769.75;4954189;28;20043;-78
2022/01/02 02:12:58;;;;;;;23.33;9.00;;;;;;;1.73;81.18;101765.28;4941365;28;20138;-78
2022/01/02 02:15:27;;;;;;;22.13;8.77;;;;;;;1.72;81.60;101771.16;4956820;28;20133;-76
2022/01/02 02:17:57;;;;;;;18.73;7.63;;;;;;;1.70;81.27;101762.50;4949696;28;20522;-77
2022/01/02 02:20:28;;;;;;;22.25;8.20;;;;;;;1.70;81.82;101766.72;4937457;29;20058;-76
2022/01/02 02:22:59;;;;;;;16.75;6.40;;;;;;;1.68;81.63;101758.91;4942443;29;20055;-77
2022/01/02 02:25:29;;;;;;;13.70;6.35;;;;;;;1.65;81.06;101751.91;4944190;28;20048;-76
2022/01/02 02:27:59;;;;;;;18.63;6.90;;;;;;;1.63;81.79;101748.34;4955187;29;20505;-77
2022/01/02 02:30:29;;;;;;;12.57;5.68;;;;;;;1.62;81.99;101736.34;4945152;28;20082;-77
2022/01/02 02:32:58;;;;;;;18.45;6.15;;;;;;;1.62;84.37;101725.25;4953545;29;20062;-76
2022/01/02 02:35:31;;;;;;;17.88;5.32;;;;;;;1.59;86.47;101725.00;4946222;28;20135;-76
2022/01/02 02:38:07;;;;;;;13.95;6.07;;;;;;;1.56;86.32;101730.75;4939452;29;20059;-74
2022/01/02 02:40:36;;;;;;;12.80;6.10;;;;;;;1.54;85.33;101731.41;4946756;28;20568;-75
2022/01/02 02:43:09;;;;;;;16.27;6.72;;;;;;;1.50;85.96;101726.81;4936462;29;20051;-76
2022/01/02 02:51:13;;;;;;;13.02;5.32;;;;;;;1.46;88.66;101702.72;4946022;29;20067;-76
2022/01/02 02:53:44;;;;;;;13.73;6.15;;;;;;;1.45;90.03;101706.03;4952543;29;20145;-77
2022/01/02 02:56:17;;;;;;;15.07;5.85;;;;;;;1.44;89.87;101707.72;4957515;28;20058;-76
2022/01/02 02:58:46;;;;;;;14.55;4.43;;;;;;;1.43;89.90;101708.47;4960325;28;20146;-75
2022/01/02 03:01:16;;;;;;;13.85;5.63;;;;;;;1.41;89.54;101710.00;4950148;28;20055;-77
2022/01/02 03:03:46;;;;;;;10.68;5.63;;;;;;;1.41;90.21;101698.91;4949104;29;20047;-76
2022/01/02 03:06:17;;;;;;;10.30;5.03;;;;;;;1.39;90.79;101693.66;4955096;28;20090;-75
2022/01/02 03:08:47;;;;;;;14.38;6.32;;;;;;;1.40;90.56;101692.03;4946225;28;20540;-74
2022/01/02 03:11:18;;;;;;;22.10;7.03;;;;;;;1.39;90.99;101687.69;4951032;28;20051;-74
2022/01/02 03:13:48;;;;;;;21.77;6.10;;;;;;;1.39;90.53;101680.91;4950998;29;20054;-78
2022/01/02 03:16:17;;;;;;;22.98;8.00;;;;;;;1.39;89.69;101691.13;4949870;28;20060;-76
2022/01/02 03:18:46;;;;;;;16.75;7.75;;;;;;;1.40;89.72;101697.13;4948838;29;20122;-76
2022/01/02 03:21:16;;;;;;;16.90;7.55;;;;;;;1.38;90.52;101697.00;4935977;29;20106;-71
2022/01/02 03:23:45;;;;;;;15.52;6.18;;;;;;;1.37;90.45;101691.75;4950005;29;20087;-72
2022/01/02 03:26:13;;;;;;;21.35;8.02;;;;;;;1.35;90.73;101689.13;4940740;28;20114;-74
2022/01/02 03:28:42;;;;;;;17.70;8.38;;;;;;;1.34;90.93;101687.31;4944997;28;20098;-74
2022/01/02 03:31:10;;;;;;;21.67;8.40;;;;;;;1.31;89.85;101704.91;4937733;29;20472;-70
2022/01/02 03:33:39;;;;;;;17.88;6.22;;;;;;;1.27;90.85;101710.53;4944808;28;20517;-73
2022/01/02 03:36:08;;;;;;;12.95;5.28;;;;;;;1.24;91.41;101710.28;4948949;29;20497;-72
2022/01/02 03:38:38;;;;;;;12.57;5.10;;;;;;;1.21;91.17;101715.13;4942050;29;20134;-73
2022/01/02 03:41:07;;;;;;;13.10;5.63;;;;;;;1.21;91.16;101720.22;4954023;28;20122;-73
2022/01/02 03:43:35;;;;;;;10.98;4.65;;;;;;;1.19;90.55;101706.44;4950890;28;20535;-75
2022/01/02 03:46:04;;;;;;;16.00;4.72;;;;;;;1.17;90.84;101696.16;4936095;29;20047;-73
2022/01/02 03:48:34;;;;;;;11.57;4.65;;;;;;;1.15;91.39;101701.88;4951220;29;20134;-77
2022/01/02 03:51:02;;;;;;;12.38;4.68;;;;;;;1.13;90.90;101698.31;4946211;28;20138;-74
2022/01/02 03:53:31;;;;;;;11.45;3.75;;;;;;;1.09;92.21;101686.97;4949270;29;20078;-76
2022/01/02 03:56:01;;;;;;;9.43;3.40;;;;;;;1.11;91.12;101707.50;4954682;28;20047;-76
2022/01/02 03:58:29;;;;;;;5.07;2.95;;;;;;;1.10;90.77;101705.69;4954024;28;20043;-76
2022/01/02 04:00:58;;;;;;;10.55;4.10;;;;;;;1.09;90.78;101699.69;4949727;28;20059;-76
2022/01/02 04:03:26;;;;;;;5.82;3.55;;;;;;;1.07;91.47;101703.78;4947557;29;20051;-77
2022/01/02 04:05:55;;;;;;;8.30;3.28;;;;;;;1.06;91.94;101701.13;4954022;28;20055;-77
2022/01/02 04:08:23;;;;;;;6.68;3.28;;;;;;;1.04;91.93;101698.44;4942181;28;20189;-77
2022/01/02 04:10:52;;;;;;;7.25;3.08;;;;;;;1.04;92.25;101701.00;4951441;28;20044;-75
2022/01/02 04:13:22;;;;;;;9.60;4.25;;;;;;;0.95;92.29;101680.72;4934127;29;20055;-76
2022/01/02 04:15:50;;;;;;;7.25;3.88;;;;;;;1.01;92.76;101690.56;4949621;28;20051;-75
2022/01/02 04:18:19;;;;;;;5.45;3.45;;;;;;;1.04;92.35;101691.69;4934965;29;20481;-75
2022/01/02 04:20:49;;;;;;;7.30;3.92;;;;;;;1.03;93.24;101692.47;4937237;29;20094;-75
2022/01/02 04:23:17;;;;;;;7.55;3.53;;;;;;;1.02;93.19;101690.66;4953558;28;20055;-75
2022/01/02 04:25:53;;;;;;;8.85;3.25;;;;;;;1.00;93.72;101679.44;4939313;28;20051;-75
2022/01/02 04:28:23;;;;;;;6.93;3.92;;;;;;;1.00;95.92;101673.47;4933840;29;20083;-73
2022/01/02 04:30:52;;;;;;;7.80;3.20;;;;;;;1.01;100.00;101681.25;4935121;29;20083;-74
2022/01/02 04:33:20;;;;;;;8.18;3.35;;;;;;;1.01;99.78;101671.06;4952979;29;20075;-74
2022/01/02 04:35:48;;;;;;;10.57;4.00;;;;;;;1.03;100.00;101672.06;4942102;28;20051;-76
2022/01/02 04:38:17;;;;;;;6.43;3.30;;;;;;;1.01;99.80;101676.16;4938870;28;20051;-76
2022/01/02 04:40:48;;;;;;;7.95;3.20;;;;;;;0.99;100.00;101666.59;4943631;29;20063;-76
2022/01/02 04:43:16;;;;;;;9.15;3.67;;;;;;;0.97;100.00;101666.47;4949297;29;20676;-74
2022/01/02 04:45:46;;;;;;;10.55;4.60;;;;;;;0.96;100.00;101669.78;4943995;29;20055;-76
2022/01/02 04:48:15;;;;;;;8.43;4.05;;;;;;;0.99;100.00;101671.69;4938111;28;20103;-75
2022/01/02 04:50:43;;;;;;;11.73;3.72;;;;;;;0.99;100.00;101662.38;4934405;29;20111;-76
2022/01/02 04:53:12;;;;;;;8.10;4.15;;;;;;;1.00;100.00;101650.53;4947624;29;20047;-75
2022/01/02 04:55:40;;;;;;;8.30;3.80;;;;;;;0.99;100.00;101651.31;4940299;29;20084;-74
2022/01/02 04:58:09;;;;;;;9.02;3.80;;;;;;;0.96;100.00;101657.03;4952136;28;20102;-75
2022/01/02 05:00:37;;;;;;;11.05;4.35;;;;;;;0.95;100.00;101647.59;4951763;28;20638;-74
2022/01/02 05:03:07;;;;;;;10.50;4.00;;;;;;;0.96;100.00;101643.38;4943537;29;20086;-76
2022/01/02 05:05:36;;;;;;;7.60;4.20;;;;;;;0.95;100.00;101637.41;4952271;29;20106;-74
2022/01/02 05:08:04;;;;;;;10.30;4.35;;;;;;;0.95;100.00;101639.97;4934238;29;20110;-74
2022/01/02 05:10:33;;;;;;;10.90;5.13;;;;;;;0.95;100.00;101634.84;4951170;28;20051;-75
2022/01/02 05:13:01;;;;;;;10.65;5.00;;;;;;;0.94;100.00;101619.44;4942846;29;20161;-75
2022/01/02 05:15:30;;;;;;;13.90;5.85;;;;;;;0.95;100.00;101618.69;4954206;28;20051;-75
2022/01/02 05:18:00;;;;;;;10.95;5.13;;;;;;;0.95;100.00;101614.47;4933932;29;20197;-76
2022/01/02 05:20:31;;;;;;;9.60;4.72;;;;;;;0.97;100.00;101618.03;4961403;28;20076;-77
2022/01/02 05:23:00;;;;;;;13.00;5.07;;;;;;;0.96;100.00;101620.44;4963091;28;20517;-75
2022/01/02 05:25:29;;;;;;;15.40;5.75;;;;;;;0.98;100.00;101624.03;4941676;28;20048;-72
2022/01/02 05:27:57;;;;;;;13.77;5.65;;;;;;;0.98;100.00;101624.03;4947823;29;20068;-74
2022/01/02 05:30:26;;;;;;;13.85;5.57;;;;;;;0.99;100.00;101628.38;4934385;29;20051;-74
2022/01/02 05:32:54;;;;;;;15.70;4.70;;;;;;;0.97;100.00;101633.31;4949786;29;20071;-74
2022/01/02 05:35:23;;;;;;;12.00;4.88;;;;;;;0.98;100.00;101646.94;4944252;29;20103;-75
2022/01/02 05:37:53;;;;;;;9.68;5.43;;;;;;;0.98;100.00;101650.38;4947526;29;20074;-74
2022/01/02 05:40:21;;;;;;;19.48;6.53;;;;;;;0.97;100.00;101646.06;4933707;29;20094;-74
2022/01/02 05:42:50;;;;;;;16.60;6.55;;;;;;;0.97;100.00;101638.44;4946498;29;20109;-76
2022/01/02 05:45:18;;;;;;;15.00;4.95;;;;;;;0.97;100.00;101632.44;4939902;29;20047;-75
2022/01/02 05:47:47;;;;;;;9.63;4.90;;;;;;;0.96;100.00;101621.38;4941374;29;20082;-74
2022/01/02 05:50:15;;;;;;;7.97;4.82;;;;;;;0.97;100.00;101615.50;4936634;29;20223;-74
2022/01/02 05:52:44;;;;;;;16.90;6.47;;;;;;;0.95;100.00;101604.28;4946446;29;20051;-75
2022/01/02 05:55:14;;;;;;;12.30;5.50;;;;;;;0.87;100.00;101601.88;4955381;28;20051;-75
2022/01/02 05:57:43;;;;;;;12.65;4.05;;;;;;;0.84;100.00;101600.84;4948180;28;20510;-75
2022/01/02 06:00:12;;;;;;;8.65;4.10;;;;;;;0.84;100.00;101615.25;4938124;29;20086;-76
2022/01/02 06:02:41;;;;;;;8.85;4.07;;;;;;;0.86;100.00;101621.38;4945655;29;20047;-74
2022/01/02 06:05:10;;;;;;;12.40;4.15;;;;;;;0.88;100.00;101612.19;4958460;29;20110;-75
2022/01/02 06:07:38;;;;;;;9.35;3.05;;;;;;;0.90;100.00;101612.31;4938113;28;20652;-76
2022/01/02 06:10:08;;;;;;;11.25;4.07;;;;;;;0.88;100.00;101602.00;4952783;28;20055;-76
2022/01/02 06:12:38;;;;;;;12.15;5.10;;;;;;;0.88;100.00;101609.66;4937361;29;20059;-78
2022/01/02 06:15:07;;;;;;;20.08;6.80;;;;;;;0.86;100.00;101607.75;4950950;28;20051;-79
2022/01/02 06:17:36;;;;;;;20.92;7.53;;;;;;;0.88;100.00;101606.22;4956402;28;20086;-74
2022/01/02 06:20:05;;;;;;;14.57;6.57;;;;;;;0.81;100.00;101605.69;4956593;29;20105;-78
2022/01/02 06:22:34;;;;;;;17.30;8.05;;;;;;;0.77;100.00;101608.75;4943487;28;20043;-78
2022/01/02 06:25:02;;;;;;;16.17;7.15;;;;;;;0.76;100.00;101613.75;4946862;28;20103;-78
2022/01/02 06:27:31;;;;;;;17.27;6.90;;;;;;;0.79;100.00;101606.34;4951109;29;20561;-72
2022/01/02 06:30:01;;;;;;;15.20;6.68;;;;;;;0.80;100.00;101591.19;4952742;29;20083;-70
2022/01/02 06:32:30;;;;;;;15.00;5.60;;;;;;;0.80;100.00;101588.66;4948375;29;20047;-74
2022/01/02 06:34:58;;;;;;;14.00;6.00;;;;;;;0.81;100.00;101581.88;4939815;28;20529;-75
2022/01/02 06:37:27;;;;;;;11.70;5.10;;;;;;;0.83;100.00;101572.72;4946061;29;20110;-75
2022/01/02 06:39:55;;;;;;;11.23;5.95;;;;;;;0.84;100.00;101565.19;4942453;28;20111;-74
2022/01/02 06:42:23;;;;;;;18.30;7.15;;;;;;;0.84;100.00;101565.19;4955734;28;20110;-73
2022/01/02 06:44:52;;;;;;;13.70;7.55;;;;;;;0.86;100.00;101566.97;4955666;28;20075;-74
2022/01/02 06:47:22;;;;;;;12.90;6.97;;;;;;;0.85;100.00;101566.09;4937071;29;20051;-74
2022/01/02 06:49:50;;;;;;;14.98;6.85;;;;;;;0.86;100.00;101561.88;4948977;29;20130;-73
2022/01/02 06:52:19;;;;;;;11.85;5.47;;;;;;;0.82;100.00;101553.09;4954253;28;20050;-74
2022/01/02 06:54:47;;;;;;;22.25;6.90;;;;;;;0.80;100.00;101549.50;4955771;28;20052;-73
2022/01/02 06:57:16;;;;;;;11.15;5.97;;;;;;;0.74;100.00;101537.19;4955502;28;20047;-74
2022/01/02 06:59:44;;;;;;;15.32;7.07;;;;;;;0.78;100.00;101548.50;4955055;28;20075;-72
2022/01/02 07:02:13;;;;;;;16.95;7.28;;;;;;;0.78;100.00;101553.59;4951925;28;20059;-73
2022/01/02 07:04:43;;;;;;;13.38;6.35;;;;;;;0.78;100.00;101545.94;4937736;29;20095;-74
2022/01/02 07:07:11;;;;;;;17.77;8.48;;;;;;;0.76;100.00;101552.59;4938925;29;20047;-71
2022/01/02 07:09:40;;;;;;;19.23;8.85;;;;;;;0.76;100.00;101550.94;4946310;29;20123;-71
2022/01/02 07:12:09;;;;;;;22.02;8.88;;;;;;;0.77;100.00;101552.72;4944497;28;20098;-71
2022/01/02 07:14:37;;;;;;;25.63;10.43;;;;;;;0.74;100.00;101554.13;4954391;28;20131;-72
2022/01/02 07:17:06;;;;;;;38.17;18.75;;;;;;;0.69;100.00;101552.84;4955866;28;20067;-72
2022/01/02 07:19:35;;;;;;;30.27;13.73;;;;;;;0.70;100.00;101554.66;4955609;28;20047;-73
2022/01/02 07:22:05;;;;;;;14.95;6.85;;;;;;;0.63;100.00;101545.59;4943156;29;20055;-72
2022/01/02 07:24:34;;;;;;;20.45;7.32;;;;;;;0.54;100.00;101553.38;4954942;28;20059;-72
2022/01/02 07:27:03;;;;;;;17.10;6.63;;;;;;;0.53;100.00;101551.59;4943013;28;20055;-71
2022/01/02 07:29:31;;;;;;;14.88;6.30;;;;;;;0.56;100.00;101553.50;4966418;28;20113;-71
2022/01/02 07:32:00;;;;;;;13.38;6.63;;;;;;;0.53;100.00;101543.97;4954208;28;20477;-70
2022/01/02 07:34:28;;;;;;;15.27;6.72;;;;;;;0.51;100.00;101542.94;4940461;28;20091;-70
2022/01/02 07:36:57;;;;;;;12.70;5.50;;;;;;;0.54;100.00;101538.09;4948143;28;20059;-70
2022/01/02 07:39:27;;;;;;;12.77;6.60;;;;;;;0.53;100.00;101535.44;4935289;29;20055;-71
2022/01/02 07:41:55;;;;;;;10.43;5.68;;;;;;;0.48;100.00;101524.88;4935132;29;20052;-70
2022/01/02 07:44:24;;;;;;;16.92;6.30;;;;;;;0.43;100.00;101507.44;4935361;29;20448;-70
2022/01/02 07:46:53;;;;;;;10.48;5.18;;;;;;;0.43;100.00;101502.34;4938219;29;20114;-71
2022/01/02 07:49:21;;;;;;;11.05;5.25;;;;;;;0.46;100.00;101502.59;4945718;28;20052;-70
2022/01/02 07:51:50;;;;;;;11.57;4.78;;;;;;;0.47;100.00;101492.53;4935990;29;20083;-70
2022/01/02 07:54:18;;;;;;;12.02;5.82;;;;;;;0.45;100.00;101488.97;4953946;28;20075;-70
2022/01/02 07:56:48;;;;;;;9.32;4.90;;;;;;;0.38;100.00;101481.59;4952993;28;20051;-70
2022/01/02 07:59:17;;;;;;;21.90;8.63;;;;;;;0.49;100.00;101506.28;4940112;29;20056;-69
2022/01/02 08:01:46;;;;;;;17.83;7.10;;;;;;;0.48;100.00;101507.06;4941840;28;20274;-70
2022/01/02 08:04:14;;;;;;;12.80;5.72;;;;;;;0.47;100.00;101515.44;4937936;29;20414;-69
2022/01/02 08:06:43;;;;;;;19.02;7.53;;;;;;;0.48;100.00;101516.34;4943823;28;20052;-70
2022/01/02 08:09:11;;;;;;;10.98;5.65;;;;;;;0.40;100.00;101492.81;4943255;29;20053;-70
2022/01/02 08:11:40;;;;;;;15.52;6.35;;;;;;;0.47;100.00;101505.25;4944715;28;20560;-70
2022/01/02 08:14:11;;;;;;;13.95;6.47;;;;;;;0.49;100.00;101500.31;4947300;29;20050;-70
2022/01/02 08:16:40;;;;;;;14.85;6.60;;;;;;;0.49;100.00;101495.22;4947097;28;20059;-71
2022/01/02 08:19:08;;;;;;;19.92;6.05;;;;;;;0.45;100.00;101495.72;4940098;28;20059;-71
2022/01/02 08:21:37;;;;;;;12.73;6.70;;;;;;;0.38;100.00;101486.69;4945389;28;20048;-71
2022/01/02 08:24:06;;;;;;;16.42;5.60;;;;;;;0.30;100.00;101478.44;4942409;29;20067;-70
2022/01/02 08:26:35;;;;;;;15.45;6.72;;;;;;;0.14;100.00;101458.47;4962485;28;20071;-70
2022/01/02 08:29:03;;;;;;;20.27;6.35;;;;;;;0.09;100.00;101463.94;4973806;28;20050;-70
2022/01/02 08:31:35;;;;;;;12.93;5.47;;;;;;;0.04;100.00;101460.13;4934481;29;20056;-70
2022/01/02 08:34:04;;;;;;;17.33;6.30;;;;;;;-0.01;100.00;101462.28;4934754;29;20051;-70
2022/01/02 08:36:32;;;;;;;10.65;5.20;;;;;;;0.00;100.00;101459.00;4935182;29;20048;-70
2022/01/02 08:39:02;;;;;;;9.95;4.15;;;;;;;0.03;100.00;101458.34;4944895;29;20050;-70
2022/01/02 08:41:30;;;;;;;10.55;4.57;;;;;;;0.06;100.00;101462.03;4951988;28;20067;-70
2022/01/02 08:43:59;;;;;;;7.38;3.63;;;;;;;0.10;100.00;101466.59;4944619;29;20106;-71
2022/01/02 08:46:27;;;;;;;14.73;5.18;;;;;;;0.04;100.00;101445.72;4953824;28;20090;-70
2022/01/02 08:48:58;;;;;;;12.23;5.75;;;;;;;0.14;100.00;101455.94;4948174;28;20071;-70
2022/01/02 08:51:27;;;;;;;7.78;4.93;;;;;;;0.18;100.00;101450.34;4935090;29;20051;-70
2022/01/02 08:53:56;;;;;;;15.60;6.45;;;;;;;0.19;100.00;101448.66;4947392;29;20047;-70
2022/01/02 08:56:24;;;;;;;11.05;5.00;;;;;;;0.18;100.00;101450.34;4945956;29;20051;-71
2022/01/02 08:58:53;;;;;;;11.75;5.20;;;;;;;0.21;100.00;101444.59;4935642;28;20099;-72
2022/01/02 09:01:21;;;;;;;9.25;4.63;;;;;;;0.23;100.00;101439.59;4934215;29;20051;-71
2022/01/02 09:03:50;;;;;;;9.18;5.07;;;;;;;0.24;100.00;101442.28;4947253;29;20523;-71
2022/01/02 09:06:20;;;;;;;9.43;3.63;;;;;;;0.20;100.00;101428.41;4953236;28;20494;-71
2022/01/02 09:08:49;;;;;;;8.38;4.10;;;;;;;0.17;100.00;101428.16;4942880;28;20051;-71
2022/01/02 09:11:17;;;;;;;8.07;3.95;;;;;;;0.19;100.00;101436.81;4948983;28;20557;-71
2022/01/02 09:13:46;;;;;;;8.82;4.18;;;;;;;0.19;100.00;101434.28;4949485;29;20047;-71
2022/01/02 09:16:21;;;;;;;10.68;4.97;;;;;;;0.20;100.00;101425.88;4942355;28;20135;-72
2022/01/02 09:18:56;;;;;;;13.30;6.10;;;;;;;0.23;100.00;101416.69;4941021;28;20063;-71
2022/01/02 09:21:26;;;;;;;11.48;4.65;;;;;;;0.22;100.00;101402.22;4939039;29;20241;-71
2022/01/02 09:23:54;;;;;;;15.30;4.85;;;;;;;0.24;100.00;101399.03;4942862;28;20133;-72
2022/01/02 09:26:23;;;;;;;8.68;4.15;;;;;;;0.23;100.00;101411.63;4955177;29;20047;-71
2022/01/02 09:28:51;;;;;;;9.50;4.18;;;;;;;0.22;100.00;101412.41;4946371;28;20573;-71
2022/01/02 09:31:20;;;;;;;8.48;4.32;;;;;;;0.18;100.00;101414.69;4937583;29;20055;-72
2022/01/02 09:33:48;;;;;;;9.98;4.60;;;;;;;0.17;100.00;101417.09;4945106;29;20051;-72
2022/01/02 09:36:17;;;;;;;15.18;5.78;;;;;;;0.19;100.00;101426.66;4942289;28;20056;-71
2022/01/02 09:38:47;;;;;;;16.13;6.43;;;;;;;0.19;100.00;101420.69;4937403;29;20051;-71
2022/01/02 09:41:16;;;;;;;10.77;4.75;;;;;;;0.21;100.00;101429.31;4937232;29;20648;-71
2022/01/02 09:43:44;;;;;;;9.48;4.57;;;;;;;0.20;100.00;101427.53;4937279;29;20575;-71
2022/01/02 09:46:14;;;;;;;11.45;5.63;;;;;;;0.19;100.00;101423.22;4937462;29;20083;-71
2022/01/02 09:48:45;;;;;;;10.20;5.03;;;;;;;0.13;100.00;101409.97;4935271;28;20063;-70
2022/01/02 09:51:13;;;;;;;14.77;5.65;;;;;;;0.21;100.00;101411.50;4936910;29;20062;-71
2022/01/02 09:53:42;;;;;;;15.05;5.60;;;;;;;0.22;100.00;101409.84;4948910;29;20051;-70
2022/01/02 09:56:12;;;;;;;15.23;5.60;;;;;;;0.18;100.00;101409.63;4956051;28;20051;-71
2022/01/02 09:58:43;;;;;;;12.85;5.78;;;;;;;0.19;100.00;101425.75;4940255;28;20553;-71
2022/01/02 10:01:16;;;;;;;18.48;6.28;;;;;;;0.20;100.00;101430.06;4943907;29;20055;-72
2022/01/02 10:03:46;;;;;;;16.85;6.47;;;;;;;0.22;100.00;101431.09;4955846;28;20055;-70
2022/01/02 10:06:15;;;;;;;18.67;6.88;;;;;;;0.23;100.00;101424.34;4951346;29;20056;-70
2022/01/02 10:08:43;;;;;;;13.90;7.00;;;;;;;0.24;100.00;101418.50;4938961;29;20505;-70
2022/01/02 10:11:20;;;;;;;14.50;6.75;;;;;;;0.23;100.00;101430.34;4951779;28;20046;-72
2022/01/02 10:13:50;;;;;;;19.65;7.50;;;;;;;0.16;100.00;101423.88;4956338;28;20055;-70
2022/01/02 10:16:24;;;;;;;20.45;7.78;;;;;;;0.15;100.00;101429.69;4955181;28;20580;-70
2022/01/02 10:18:55;;;;;;;20.55;7.18;;;;;;;0.17;100.00;101422.19;4944791;29;20106;-70
2022/01/02 10:21:36;;;;;;;15.45;6.47;;;;;;;0.20;100.00;101419.88;4956149;28;20493;-72
2022/01/02 10:24:21;;;;;;;19.65;7.30;;;;;;;0.22;100.00;101420.03;4956069;28;20413;-70
2022/01/02 10:27:12;;;;;;;15.27;6.25;;;;;;;0.20;100.00;101413.13;4937996;29;20091;-69
2022/01/02 10:29:46;;;;;;;15.10;6.38;;;;;;;0.26;100.00;101404.25;4950320;29;20102;-70
2022/01/02 10:32:30;;;;;;;13.05;5.65;;;;;;;0.24;100.00;101393.06;4955655;28;20098;-70
2022/01/02 10:35:13;;;;;;;18.30;6.68;;;;;;;0.20;100.00;101385.16;4935938;29;20060;-70
2022/01/02 10:37:43;;;;;;;12.70;5.80;;;;;;;0.20;100.00;101387.69;4950404;29;20110;-70
2022/01/02 10:40:29;;;;;;;21.63;6.07;;;;;;;0.23;100.00;101386.16;4943664;28;20095;-70
2022/01/02 10:43:00;;;;;;;15.27;6.10;;;;;;;0.22;100.00;101379.31;4947100;29;20138;-70
2022/01/02 10:45:37;;;;;;;15.23;6.00;;;;;;;0.17;100.00;101372.19;4947582;28;20102;-70
2022/01/02 10:48:07;;;;;;;14.30;5.40;;;;;;;0.19;100.00;101375.75;4956515;28;20109;-70
2022/01/02 10:50:35;;;;;;;9.38;5.32;;;;;;;0.20;100.00;101362.25;4942496;28;20063;-70
2022/01/02 10:53:14;;;;;;;13.85;5.65;;;;;;;0.20;100.00;101357.16;4955407;28;20129;-70
2022/01/02 10:55:46;;;;;;;18.60;5.90;;;;;;;0.22;100.00;101353.84;4942056;28;20495;-69
2022/01/02 10:58:17;;;;;;;14.52;5.70;;;;;;;0.24;100.00;101347.25;4947233;28;20058;-69
2022/01/02 11:03:26;;;;;;;15.25;8.20;;;;;;;0.32;100.00;101338.53;5138103;23;20062;-78
2022/01/02 11:06:02;;;;;;;16.23;7.45;;;;;;;0.38;100.00;101336.50;4993060;28;20053;-78
2022/01/02 11:08:34;;;;;;;19.13;8.07;;;;;;;0.43;100.00;101339.41;4974326;28;20082;-77
2022/01/02 11:11:03;;;;;;;20.33;6.07;;;;;;;0.45;100.00;101336.22;4982178;28;20052;-78
2022/01/02 11:13:35;;;;;;;14.95;6.72;;;;;;;0.46;100.00;101332.91;4994392;28;20105;-76
2022/01/02 11:16:05;;;;;;;11.95;6.22;;;;;;;0.48;100.00;101328.84;4993845;28;20057;-76
2022/01/02 11:18:34;;;;;;;15.02;6.00;;;;;;;0.49;100.00;101322.06;4993251;28;20042;-77
2022/01/02 11:21:04;;;;;;;18.52;5.18;;;;;;;0.52;100.00;101320.63;4985201;28;20120;-77
2022/01/02 11:23:38;;;;;;;10.57;4.80;;;;;;;0.53;100.00;101314.81;4987625;28;20046;-77
2022/01/02 11:26:14;;;;;;;11.10;5.13;;;;;;;0.61;100.00;101316.25;4976553;28;20555;-76
2022/01/02 11:28:48;;;;;;;13.00;6.15;;;;;;;0.65;100.00;101306.34;4985629;28;20192;-76
2022/01/02 11:31:30;;;;;;;15.13;5.65;;;;;;;0.66;100.00;101313.19;4992475;28;20120;-76
2022/01/02 11:33:59;;;;;;;19.88;5.75;;;;;;;0.69;100.00;101314.34;4992566;28;20103;-77
2022/01/02 11:36:29;;;;;;;13.88;5.10;;;;;;;0.73;100.00;101315.44;4980882;28;20527;-76
2022/01/02 11:39:06;;;;;;;11.00;6.18;;;;;;;0.77;100.00;101307.28;4973293;28;20058;-77
2022/01/02 11:41:39;;;;;;;12.07;5.00;;;;;;;0.80;100.00;101308.41;4987480;28;20081;-78
2022/01/02 11:44:10;;;;;;;15.93;6.22;;;;;;;0.84;100.00;101301.88;4982182;28;20120;-77